createdAt,value
2017-04-14T00:00:13.933Z,9.82
2017-04-14T00:01:11.690Z,10.58
2017-04-14T00:02:09.031Z,11.58
2017-04-14T00:03:06.363Z,11.00
2017-04-14T00:04:03.668Z,11.95
2017-04-14T00:05:00.990Z,10.30
2017-04-14T00:05:58.370Z,11.03
2017-04-14T00:06:55.758Z,10.58
2017-04-14T00:07:53.915Z,10.78
2017-04-14T00:08:51.214Z,11.08
2017-04-14T00:09:48.546Z,10.63
2017-04-14T00:10:45.866Z,10.70
2017-04-14T00:11:43.997Z,10.22
2017-04-14T00:12:41.509Z,10.15
2017-04-14T00:13:38.903Z,10.28
2017-04-14T00:14:37.046Z,9.77
2017-04-14T00:15:34.412Z,11.47
2017-04-14T00:16:31.781Z,10.28
2017-04-14T00:17:29.105Z,10.73
2017-04-14T00:18:27.506Z,10.80
2017-04-14T00:19:24.834Z,10.92
2017-04-14T00:20:22.990Z,9.53
2017-04-14T00:21:20.377Z,12.92
2017-04-14T00:22:17.831Z,10.57
2017-04-14T00:23:15.154Z,12.03
2017-04-14T00:24:12.666Z,11.25
2017-04-14T00:25:10.710Z,12.92
2017-04-14T00:26:08.817Z,10.85
2017-04-14T00:27:06.354Z,10.53
2017-04-14T00:28:03.671Z,10.13
2017-04-14T00:29:01.734Z,10.90
2017-04-14T00:29:59.982Z,11.72
2017-04-14T00:30:57.513Z,12.58
2017-04-14T00:31:54.878Z,11.40
2017-04-14T00:32:52.223Z,10.62
2017-04-14T00:33:49.583Z,11.35
2017-04-14T00:34:46.927Z,11.62
2017-04-14T00:35:44.508Z,12.20
2017-04-14T00:36:42.582Z,13.38
2017-04-14T00:37:39.883Z,12.15
2017-04-14T00:38:37.184Z,12.88
2017-04-14T00:39:35.218Z,11.77
2017-04-14T00:40:33.377Z,11.65
2017-04-14T00:41:30.779Z,14.03
2017-04-14T00:42:28.834Z,13.20
2017-04-14T00:43:26.902Z,12.72
2017-04-14T00:44:24.258Z,13.40
2017-04-14T00:45:21.955Z,13.72
2017-04-14T00:46:19.276Z,12.28
2017-04-14T00:47:16.673Z,12.28
2017-04-14T00:48:13.973Z,12.12
2017-04-14T00:49:11.327Z,13.15
2017-04-14T00:50:08.722Z,14.17
2017-04-14T00:51:06.062Z,10.55
2017-04-14T00:52:03.447Z,11.58
2017-04-14T00:53:01.602Z,13.58
2017-04-14T00:53:59.022Z,12.42
2017-04-14T00:54:56.422Z,12.42
2017-04-14T00:55:54.478Z,10.82
2017-04-14T00:56:51.833Z,12.43
2017-04-14T00:57:49.889Z,13.00
2017-04-14T00:58:48.055Z,13.70
2017-04-14T00:59:45.841Z,11.97
2017-04-14T01:00:43.137Z,11.95
2017-04-14T01:01:40.466Z,12.67
2017-04-14T01:02:37.792Z,12.07
2017-04-14T01:03:35.964Z,13.15
2017-04-14T01:04:33.416Z,11.70
2017-04-14T01:05:30.717Z,12.00
2017-04-14T01:06:28.038Z,14.07
2017-04-14T01:07:26.072Z,14.22
2017-04-14T01:08:24.237Z,12.38
2017-04-14T01:09:21.570Z,12.30
2017-04-14T01:10:19.027Z,12.90
2017-04-14T01:11:16.358Z,12.70
2017-04-14T01:12:13.792Z,12.73
2017-04-14T01:13:11.185Z,12.95
2017-04-14T01:14:08.518Z,12.58
2017-04-14T01:15:05.823Z,13.17
2017-04-14T01:16:03.363Z,12.12
2017-04-14T01:17:00.746Z,12.70
2017-04-14T01:17:58.051Z,12.65
2017-04-14T01:18:56.097Z,12.90
2017-04-14T01:19:53.485Z,13.03
2017-04-14T01:20:50.822Z,12.42
2017-04-14T01:21:49.191Z,13.75
2017-04-14T01:22:47.241Z,13.08
2017-04-14T01:23:45.176Z,13.18
2017-04-14T01:24:42.493Z,13.42
2017-04-14T01:25:40.586Z,12.08
2017-04-14T01:26:37.946Z,13.83
2017-04-14T01:27:35.393Z,11.98
2017-04-14T01:28:32.717Z,12.73
2017-04-14T01:29:30.022Z,12.67
2017-04-14T01:30:28.098Z,12.92
2017-04-14T01:31:26.155Z,14.35
2017-04-14T01:32:23.490Z,12.27
2017-04-14T01:33:20.887Z,12.65
2017-04-14T01:34:18.949Z,11.68
2017-04-14T01:35:16.294Z,11.80
2017-04-14T01:36:13.624Z,13.07
2017-04-14T01:37:10.984Z,12.68
2017-04-14T01:38:08.440Z,13.38
2017-04-14T01:39:05.882Z,12.28
2017-04-14T01:40:03.230Z,13.35
2017-04-14T01:41:00.529Z,11.68
2017-04-14T01:41:57.869Z,12.68
2017-04-14T01:42:55.945Z,11.33
2017-04-14T01:43:54.011Z,12.67
2017-04-14T01:44:51.416Z,14.55
2017-04-14T01:45:48.717Z,13.53
2017-04-14T01:46:46.025Z,13.77
2017-04-14T01:47:43.641Z,13.47
2017-04-14T01:48:40.962Z,14.13
2017-04-14T01:49:38.314Z,12.58
2017-04-14T01:50:35.688Z,13.45
2017-04-14T01:51:33.733Z,12.22
2017-04-14T01:52:31.936Z,13.97
2017-04-14T01:53:30.025Z,13.37
2017-04-14T01:54:27.411Z,12.97
2017-04-14T01:55:24.725Z,12.48
2017-04-14T01:56:22.129Z,12.82
2017-04-14T01:57:20.350Z,13.05
2017-04-14T01:58:17.719Z,14.88
2017-04-14T01:59:15.052Z,13.62
2017-04-14T02:00:12.395Z,15.17
2017-04-14T02:01:09.726Z,13.62
2017-04-14T02:02:07.106Z,13.25
2017-04-14T02:03:04.495Z,11.40
2017-04-14T02:04:01.813Z,12.52
2017-04-14T02:04:59.267Z,11.77
2017-04-14T02:05:56.669Z,11.28
2017-04-14T02:06:54.038Z,13.68
2017-04-14T02:07:51.457Z,10.97
2017-04-14T02:08:48.785Z,11.63
2017-04-14T02:09:46.144Z,11.97
2017-04-14T02:10:43.470Z,13.00
2017-04-14T02:11:40.942Z,12.32
2017-04-14T02:12:38.291Z,13.32
2017-04-14T02:13:36.203Z,12.15
2017-04-14T02:14:34.277Z,12.60
2017-04-14T02:15:32.122Z,12.87
2017-04-14T02:16:29.510Z,11.95
2017-04-14T02:17:27.227Z,12.55
2017-04-14T02:18:24.565Z,13.23
2017-04-14T02:19:22.150Z,13.42
2017-04-14T02:20:20.070Z,11.98
2017-04-14T02:21:17.363Z,14.15
2017-04-14T02:22:15.031Z,13.37
2017-04-14T02:23:12.374Z,14.33
2017-04-14T02:24:09.694Z,12.45
2017-04-14T02:25:07.078Z,12.40
2017-04-14T02:26:05.165Z,13.40
2017-04-14T02:27:02.583Z,12.27
2017-04-14T02:28:00.477Z,12.28
2017-04-14T02:28:57.790Z,13.13
2017-04-14T02:29:55.830Z,12.50
2017-04-14T02:30:53.967Z,12.00
2017-04-14T02:31:52.077Z,11.42
2017-04-14T02:32:50.166Z,11.52
2017-04-14T02:33:48.235Z,12.62
2017-04-14T02:34:45.591Z,12.97
2017-04-14T02:35:43.121Z,14.08
2017-04-14T02:36:40.588Z,11.80
2017-04-14T02:37:37.933Z,13.22
2017-04-14T02:38:35.238Z,11.95
2017-04-14T02:39:32.528Z,11.73
2017-04-14T02:40:29.849Z,13.98
2017-04-14T02:41:27.186Z,12.40
2017-04-14T02:42:25.254Z,12.77
2017-04-14T02:43:22.587Z,14.43
2017-04-14T02:44:20.693Z,15.92
2017-04-14T02:45:19.338Z,13.07
2017-04-14T02:46:16.662Z,12.73
2017-04-14T02:47:13.953Z,13.40
2017-04-14T02:48:12.089Z,13.60
2017-04-14T02:49:10.097Z,11.88
2017-04-14T02:50:07.458Z,14.43
2017-04-14T02:51:04.796Z,13.05
2017-04-14T02:52:02.145Z,11.75
2017-04-14T02:52:59.493Z,12.62
2017-04-14T02:53:56.881Z,14.53
2017-04-14T02:54:54.242Z,12.38
2017-04-14T02:55:51.538Z,12.73
2017-04-14T02:56:49.618Z,13.63
2017-04-14T02:57:46.921Z,15.28
2017-04-14T02:58:44.217Z,12.92
2017-04-14T02:59:41.618Z,12.47
2017-04-14T03:00:39.694Z,13.70
2017-04-14T03:01:37.075Z,14.67
2017-04-14T03:02:34.398Z,12.77
2017-04-14T03:03:31.704Z,13.28
2017-04-14T03:04:30.023Z,14.65
2017-04-14T03:05:27.939Z,13.92
2017-04-14T03:06:25.250Z,13.62
2017-04-14T03:07:22.562Z,13.77
2017-04-14T03:08:20.600Z,13.97
2017-04-14T03:09:18.659Z,14.38
2017-04-14T03:10:16.709Z,14.62
2017-04-14T03:11:14.117Z,13.38
2017-04-14T03:12:12.474Z,15.05
2017-04-14T03:13:09.807Z,14.43
2017-04-14T03:14:07.204Z,15.15
2017-04-14T03:15:04.533Z,15.32
2017-04-14T03:16:01.829Z,15.45
2017-04-14T03:16:59.990Z,15.05
2017-04-14T03:17:57.974Z,14.95
2017-04-14T03:18:55.284Z,15.03
2017-04-14T03:19:52.602Z,15.23
2017-04-14T03:20:49.926Z,17.15
2017-04-14T03:21:47.256Z,15.77
2017-04-14T03:22:44.673Z,15.48
2017-04-14T03:23:41.991Z,15.47
2017-04-14T03:24:40.067Z,15.90
2017-04-14T03:25:37.418Z,17.20
2017-04-14T03:26:34.716Z,15.97
2017-04-14T03:27:32.022Z,16.62
2017-04-14T03:28:29.413Z,16.23
2017-04-14T03:29:26.727Z,15.35
2017-04-14T03:30:24.187Z,15.55
2017-04-14T03:31:21.566Z,16.03
2017-04-14T03:32:19.853Z,16.62
2017-04-14T03:33:17.166Z,17.52
2017-04-14T03:34:15.421Z,15.57
2017-04-14T03:35:12.738Z,15.17
2017-04-14T03:36:10.045Z,16.07
2017-04-14T03:37:07.378Z,15.78
2017-04-14T03:38:05.429Z,17.62
2017-04-14T03:39:02.937Z,15.75
2017-04-14T03:40:00.305Z,15.62
2017-04-14T03:40:57.630Z,15.45
2017-04-14T03:41:56.253Z,15.55
2017-04-14T03:42:53.554Z,16.52
2017-04-14T03:43:50.874Z,15.88
2017-04-14T03:44:48.217Z,16.18
2017-04-14T03:45:45.604Z,16.13
2017-04-14T03:46:42.921Z,16.67
2017-04-14T03:47:40.240Z,17.08
2017-04-14T03:48:37.570Z,17.00
2017-04-14T03:49:34.921Z,16.33
2017-04-14T03:50:32.221Z,15.72
2017-04-14T03:51:29.638Z,17.28
2017-04-14T03:52:26.952Z,17.95
2017-04-14T03:53:24.904Z,17.05
2017-04-14T03:54:22.301Z,16.67
2017-04-14T03:55:19.601Z,14.65
2017-04-14T03:56:16.918Z,17.90
2017-04-14T03:57:15.092Z,16.58
2017-04-14T03:58:12.405Z,16.60
2017-04-14T03:59:09.718Z,16.15
2017-04-14T04:00:07.033Z,16.83
2017-04-14T04:01:04.450Z,16.60
2017-04-14T04:02:01.807Z,17.50
2017-04-14T04:02:59.198Z,16.30
2017-04-14T04:03:57.094Z,14.72
2017-04-14T04:04:54.560Z,16.68
2017-04-14T04:05:51.874Z,17.25
2017-04-14T04:06:49.199Z,16.30
2017-04-14T04:07:46.493Z,14.98
2017-04-14T04:08:43.920Z,16.27
2017-04-14T04:09:42.238Z,16.68
2017-04-14T04:10:39.554Z,17.27
2017-04-14T04:11:36.882Z,15.98
2017-04-14T04:12:34.920Z,15.40
2017-04-14T04:13:32.282Z,16.28
2017-04-14T04:14:29.682Z,16.18
2017-04-14T04:15:27.788Z,15.27
2017-04-14T04:16:25.083Z,15.75
2017-04-14T04:17:22.424Z,17.75
2017-04-14T04:18:19.743Z,16.73
2017-04-14T04:19:17.610Z,15.55
2017-04-14T04:20:14.966Z,14.28
2017-04-14T04:21:12.299Z,17.00
2017-04-14T04:22:10.185Z,15.27
2017-04-14T04:23:07.480Z,16.75
2017-04-14T04:24:04.770Z,17.53
2017-04-14T04:25:02.616Z,15.92
2017-04-14T04:26:00.691Z,15.63
2017-04-14T04:26:58.267Z,17.32
2017-04-14T04:27:56.152Z,16.37
2017-04-14T04:28:53.498Z,16.58
2017-04-14T04:29:50.837Z,16.37
2017-04-14T04:30:48.133Z,16.03
2017-04-14T04:31:51.939Z,16.90
2017-04-14T04:34:58.450Z,16.38
2017-04-14T04:35:56.251Z,14.93
2017-04-14T04:36:54.390Z,16.45
2017-04-14T04:37:51.762Z,16.73
2017-04-14T04:38:49.068Z,17.60
2017-04-14T04:39:47.226Z,16.65
2017-04-14T04:40:45.367Z,18.48
2017-04-14T04:41:42.771Z,16.75
2017-04-14T04:42:40.141Z,18.12
2017-04-14T04:43:37.461Z,17.02
2017-04-14T04:44:34.776Z,17.35
2017-04-14T04:45:32.093Z,17.58
2017-04-14T04:46:29.497Z,18.80
2017-04-14T04:47:26.822Z,17.20
2017-04-14T04:48:25.075Z,17.87
2017-04-14T04:49:22.416Z,16.80
2017-04-14T04:50:19.763Z,18.15
2017-04-14T04:51:17.093Z,17.10
2017-04-14T04:52:14.404Z,17.58
2017-04-14T04:53:12.516Z,17.93
2017-04-14T04:54:09.925Z,17.80
2017-04-14T04:55:07.357Z,17.07
2017-04-14T04:56:06.337Z,17.03
2017-04-14T04:57:03.662Z,15.32
2017-04-14T04:58:01.850Z,16.60
2017-04-14T04:58:59.955Z,16.93
2017-04-14T04:59:58.867Z,15.47
2017-04-14T05:00:56.988Z,15.92
2017-04-14T05:01:55.815Z,16.12
2017-04-14T05:02:53.099Z,15.45
2017-04-14T05:03:50.422Z,16.07
2017-04-14T05:04:47.864Z,16.33
2017-04-14T05:05:45.279Z,15.53
2017-04-14T05:06:42.583Z,16.00
2017-04-14T05:07:40.635Z,16.37
2017-04-14T05:08:37.955Z,15.17
2017-04-14T05:09:35.300Z,16.10
2017-04-14T05:10:32.630Z,15.40
2017-04-14T05:11:31.303Z,14.82
2017-04-14T05:12:28.730Z,15.58
2017-04-14T05:13:26.046Z,16.12
2017-04-14T05:14:24.094Z,17.47
2017-04-14T05:15:22.117Z,16.90
2017-04-14T05:16:19.449Z,15.72
2017-04-14T05:17:16.924Z,15.23
2017-04-14T05:18:14.226Z,15.38
2017-04-14T05:19:11.615Z,16.78
2017-04-14T05:20:09.738Z,17.95
2017-04-14T05:21:07.960Z,15.60
2017-04-14T05:22:05.386Z,16.68
2017-04-14T05:23:02.911Z,15.90
2017-04-14T05:24:00.378Z,15.75
2017-04-14T05:24:57.705Z,16.48
2017-04-14T05:25:55.031Z,16.68
2017-04-14T05:26:52.362Z,17.02
2017-04-14T05:27:49.670Z,15.65
2017-04-14T05:28:47.106Z,16.63
2017-04-14T05:29:44.435Z,16.53
2017-04-14T05:30:41.828Z,17.05
2017-04-14T05:31:39.174Z,17.23
2017-04-14T05:32:36.507Z,15.62
2017-04-14T05:33:33.878Z,16.15
2017-04-14T05:34:31.290Z,17.57
2017-04-14T05:35:28.604Z,18.25
2017-04-14T05:36:25.923Z,17.28
2017-04-14T05:37:23.217Z,16.37
2017-04-14T05:38:21.297Z,16.42
2017-04-14T05:39:19.402Z,16.03
2017-04-14T05:40:17.476Z,15.88
2017-04-14T05:41:14.851Z,16.25
2017-04-14T05:42:12.245Z,16.43
2017-04-14T05:43:09.584Z,17.85
2017-04-14T05:44:08.370Z,17.93
2017-04-14T05:45:05.668Z,16.87
2017-04-14T05:46:03.108Z,17.70
2017-04-14T05:47:00.405Z,16.58
2017-04-14T05:47:57.733Z,15.85
2017-04-14T05:48:55.036Z,16.50
2017-04-14T05:49:52.371Z,17.87
2017-04-14T05:50:49.670Z,16.28
2017-04-14T05:51:47.736Z,17.32
2017-04-14T05:52:45.075Z,16.80
2017-04-14T05:53:42.401Z,16.35
2017-04-14T05:54:39.689Z,17.08
2017-04-14T05:55:37.060Z,17.75
2017-04-14T05:56:34.461Z,18.75
2017-04-14T05:57:33.513Z,19.07
2017-04-14T05:58:30.831Z,16.78
2017-04-14T05:59:28.263Z,15.38
2017-04-14T06:00:26.423Z,18.15
2017-04-14T06:01:23.738Z,17.13
2017-04-14T06:02:21.166Z,16.83
2017-04-14T06:03:21.315Z,17.28
2017-04-14T06:04:18.606Z,17.85
2017-04-14T06:05:15.994Z,16.75
2017-04-14T06:06:13.370Z,17.48
2017-04-14T06:07:10.692Z,18.13
2017-04-14T06:08:08.087Z,18.27
2017-04-14T06:09:05.401Z,16.68
2017-04-14T06:10:02.726Z,19.15
2017-04-14T06:11:00.070Z,18.03
2017-04-14T06:11:58.797Z,16.43
2017-04-14T06:12:56.115Z,17.70
2017-04-14T06:13:53.474Z,16.00
2017-04-14T06:14:50.815Z,18.88
2017-04-14T06:15:48.136Z,17.62
2017-04-14T06:16:45.481Z,17.05
2017-04-14T06:17:42.802Z,16.52
2017-04-14T06:18:40.132Z,17.48
2017-04-14T06:19:38.338Z,17.15
2017-04-14T06:20:36.553Z,16.72
2017-04-14T06:21:34.753Z,17.40
2017-04-14T06:22:32.840Z,15.75
2017-04-14T06:23:30.942Z,18.13
2017-04-14T06:24:29.961Z,18.58
2017-04-14T06:25:28.133Z,16.88
2017-04-14T06:26:26.182Z,17.22
2017-04-14T06:27:23.485Z,15.57
2017-04-14T06:28:20.845Z,16.60
2017-04-14T06:29:18.155Z,17.28
2017-04-14T06:30:15.556Z,16.30
2017-04-14T06:31:13.118Z,19.25
2017-04-14T06:32:11.390Z,17.22
2017-04-14T06:33:08.701Z,17.60
2017-04-14T06:34:06.791Z,17.93
2017-04-14T06:35:04.873Z,17.97
2017-04-14T06:36:02.954Z,17.05
2017-04-14T06:37:01.211Z,16.97
2017-04-14T06:37:59.323Z,15.92
2017-04-14T06:38:57.438Z,17.70
2017-04-14T06:39:55.775Z,18.73
2017-04-14T06:40:54.949Z,16.80
2017-04-14T06:41:53.138Z,16.22
2017-04-14T06:42:50.546Z,19.23
2017-04-14T06:43:47.862Z,16.62
2017-04-14T06:44:45.197Z,16.47
2017-04-14T06:45:43.249Z,17.27
2017-04-14T06:46:40.598Z,17.73
2017-04-14T06:47:37.947Z,17.30
2017-04-14T06:48:35.443Z,17.03
2017-04-14T06:49:33.369Z,16.15
2017-04-14T06:50:30.689Z,16.93
2017-04-14T06:51:28.034Z,18.48
2017-04-14T06:52:25.378Z,16.15
2017-04-14T06:53:23.565Z,17.20
2017-04-14T06:54:21.072Z,16.13
2017-04-14T06:55:18.402Z,17.95
2017-04-14T06:56:15.703Z,16.15
2017-04-14T06:57:13.756Z,16.70
2017-04-14T06:58:11.098Z,18.48
2017-04-14T06:59:08.418Z,17.95
2017-04-14T07:00:06.557Z,16.53
2017-04-14T07:01:03.984Z,18.45
2017-04-14T07:02:01.328Z,17.80
2017-04-14T07:02:59.519Z,16.75
2017-04-14T07:03:57.639Z,17.43
2017-04-14T07:04:55.735Z,17.18
2017-04-14T07:05:54.258Z,18.57
2017-04-14T07:06:53.149Z,18.23
2017-04-14T07:07:51.210Z,17.17
2017-04-14T07:08:49.330Z,17.92
2017-04-14T07:09:48.072Z,15.70
2017-04-14T07:10:46.997Z,16.57
2017-04-14T07:11:45.234Z,15.65
2017-04-14T07:12:43.660Z,18.03
2017-04-14T07:13:41.755Z,16.77
2017-04-14T07:14:40.894Z,16.25
2017-04-14T07:15:38.962Z,18.38
2017-04-14T07:16:37.048Z,16.63
2017-04-14T07:17:35.491Z,16.52
2017-04-14T07:18:33.588Z,17.03
2017-04-14T07:19:32.308Z,16.47
2017-04-14T07:20:30.390Z,17.07
2017-04-14T07:21:27.783Z,16.67
2017-04-14T07:22:25.150Z,17.17
2017-04-14T07:23:23.346Z,17.35
2017-04-14T07:24:20.667Z,16.32
2017-04-14T07:25:18.092Z,15.37
2017-04-14T07:26:17.067Z,17.83
2017-04-14T07:27:15.178Z,17.05
2017-04-14T07:28:13.198Z,17.07
2017-04-14T07:29:10.609Z,17.68
2017-04-14T07:30:08.009Z,17.90
2017-04-14T07:31:05.363Z,15.78
2017-04-14T07:32:03.824Z,16.40
2017-04-14T07:33:02.133Z,16.28
2017-04-14T07:33:59.560Z,15.75
2017-04-14T07:34:57.029Z,16.90
2017-04-14T07:35:54.351Z,15.63
2017-04-14T07:36:51.771Z,17.08
2017-04-14T07:37:49.246Z,16.32
2017-04-14T07:38:46.605Z,16.17
2017-04-14T07:39:43.953Z,16.23
2017-04-14T07:40:41.432Z,15.08
2017-04-14T07:41:39.529Z,15.77
2017-04-14T07:42:36.863Z,17.08
2017-04-14T07:43:34.218Z,15.20
2017-04-14T07:44:32.062Z,15.88
2017-04-14T07:45:30.226Z,15.85
2017-04-14T07:46:27.613Z,16.27
2017-04-14T07:47:25.943Z,15.20
2017-04-14T07:48:23.528Z,16.28
2017-04-14T07:49:21.758Z,16.95
2017-04-14T07:50:19.067Z,15.33
2017-04-14T07:51:17.110Z,16.07
2017-04-14T07:52:15.250Z,15.82
2017-04-14T07:53:13.324Z,16.97
2017-04-14T07:54:10.678Z,15.50
2017-04-14T07:55:08.178Z,15.57
2017-04-14T07:56:06.260Z,15.75
2017-04-14T07:57:04.343Z,14.62
2017-04-14T07:58:02.603Z,15.10
2017-04-14T07:59:00.809Z,15.58
2017-04-14T07:59:58.197Z,15.40
2017-04-14T08:00:56.599Z,14.70
2017-04-14T08:01:53.980Z,15.88
2017-04-14T08:02:51.298Z,16.55
2017-04-14T08:03:48.667Z,14.48
2017-04-14T08:04:46.835Z,16.47
2017-04-14T08:05:47.266Z,15.57
2017-04-14T08:06:45.403Z,14.02
2017-04-14T08:07:44.924Z,15.02
2017-04-14T08:08:43.071Z,16.70
2017-04-14T08:09:41.273Z,15.42
2017-04-14T08:10:39.463Z,15.25
2017-04-14T08:11:37.627Z,13.80
2017-04-14T08:12:36.369Z,15.37
2017-04-14T08:13:34.496Z,15.70
2017-04-14T08:14:32.594Z,15.67
2017-04-14T08:15:31.382Z,16.28
2017-04-14T08:16:29.487Z,16.13
2017-04-14T08:17:27.797Z,13.87
2017-04-14T08:18:26.482Z,16.70
2017-04-14T08:19:23.853Z,14.62
2017-04-14T08:20:21.192Z,14.67
2017-04-14T08:21:19.352Z,16.00
2017-04-14T08:22:17.442Z,14.87
2017-04-14T08:23:15.179Z,14.03
2017-04-14T08:24:13.324Z,15.28
2017-04-14T08:25:10.899Z,14.30
2017-04-14T08:26:08.321Z,15.72
2017-04-14T08:27:06.801Z,14.67
2017-04-14T08:28:04.623Z,16.05
2017-04-14T08:29:02.755Z,14.18
2017-04-14T08:30:00.068Z,15.70
2017-04-14T08:30:57.395Z,15.03
2017-04-14T08:31:54.722Z,15.40
2017-04-14T08:32:52.843Z,15.88
2017-04-14T08:33:51.010Z,14.53
2017-04-14T08:34:49.065Z,15.47
2017-04-14T08:35:46.425Z,15.53
2017-04-14T08:36:44.660Z,15.88
2017-04-14T08:37:42.002Z,15.17
2017-04-14T08:38:39.414Z,16.07
2017-04-14T08:39:36.722Z,15.93
2017-04-14T08:40:34.141Z,14.12
2017-04-14T08:41:32.263Z,15.68
2017-04-14T08:42:31.318Z,15.37
2017-04-14T08:43:28.619Z,14.50
2017-04-14T08:44:26.029Z,14.22
2017-04-14T08:45:24.117Z,15.85
2017-04-14T08:46:22.209Z,15.77
2017-04-14T08:47:19.560Z,15.17
2017-04-14T08:48:16.910Z,15.35
2017-04-14T08:49:14.258Z,16.87
2017-04-14T08:50:11.717Z,16.42
2017-04-14T08:51:09.894Z,16.97
2017-04-14T08:52:07.203Z,15.53
2017-04-14T08:53:04.552Z,15.83
2017-04-14T08:54:01.943Z,16.40
2017-04-14T08:55:00.018Z,18.97
2017-04-14T08:55:58.186Z,15.35
2017-04-14T08:56:56.546Z,16.05
2017-04-14T08:57:53.875Z,17.72
2017-04-14T08:58:51.205Z,17.87
2017-04-14T08:59:49.954Z,15.88
2017-04-14T09:00:48.003Z,18.33
2017-04-14T09:01:45.478Z,15.47
2017-04-14T09:02:42.963Z,14.97
2017-04-14T09:03:41.079Z,15.20
2017-04-14T09:04:39.070Z,15.20
2017-04-14T09:05:37.759Z,16.38
2017-04-14T09:06:35.307Z,15.30
2017-04-14T09:07:33.367Z,14.47
2017-04-14T09:08:30.726Z,14.80
2017-04-14T09:09:28.141Z,14.85
2017-04-14T09:10:26.289Z,14.12
2017-04-14T09:11:23.698Z,16.33
2017-04-14T09:12:21.196Z,14.08
2017-04-14T09:13:19.280Z,16.28
2017-04-14T09:14:17.369Z,16.60
2017-04-14T09:15:16.042Z,15.97
2017-04-14T09:16:14.121Z,15.15
2017-04-14T09:17:12.295Z,14.85
2017-04-14T09:18:09.714Z,14.98
2017-04-14T09:19:07.073Z,15.23
2017-04-14T09:20:04.369Z,15.75
2017-04-14T09:21:01.803Z,15.60
2017-04-14T09:21:59.180Z,14.47
2017-04-14T09:22:56.500Z,16.32
2017-04-14T09:23:53.903Z,16.70
2017-04-14T09:24:51.229Z,14.75
2017-04-14T09:25:49.302Z,15.88
2017-04-14T09:26:47.528Z,14.78
2017-04-14T09:27:44.859Z,13.35
2017-04-14T09:28:42.925Z,15.15
2017-04-14T09:29:41.063Z,15.52
2017-04-14T09:30:38.398Z,13.92
2017-04-14T09:31:35.823Z,15.23
2017-04-14T09:32:33.927Z,13.40
2017-04-14T09:33:32.213Z,14.43
2017-04-14T09:34:29.705Z,14.30
2017-04-14T09:35:27.150Z,14.57
2017-04-14T09:36:24.462Z,14.38
2017-04-14T09:37:21.830Z,14.95
2017-04-14T09:38:20.110Z,14.08
2017-04-14T09:39:18.275Z,15.08
2017-04-14T09:40:17.138Z,13.68
2017-04-14T09:41:17.042Z,14.80
2017-04-14T09:42:15.198Z,13.77
2017-04-14T09:43:13.401Z,14.40
2017-04-14T09:44:10.720Z,13.15
2017-04-14T09:45:08.058Z,14.45
2017-04-14T09:46:05.363Z,14.60
2017-04-14T09:47:03.541Z,12.82
2017-04-14T09:48:01.611Z,14.37
2017-04-14T09:48:58.932Z,14.20
2017-04-14T09:49:56.996Z,14.02
2017-04-14T09:50:54.320Z,13.12
2017-04-14T09:51:52.396Z,14.17
2017-04-14T09:52:50.560Z,13.80
2017-04-14T09:53:47.935Z,14.90
2017-04-14T09:54:45.255Z,14.18
2017-04-14T09:55:42.660Z,13.37
2017-04-14T09:56:39.979Z,13.85
2017-04-14T09:57:37.294Z,13.23
2017-04-14T09:58:35.515Z,12.93
2017-04-14T09:59:32.834Z,11.95
2017-04-14T10:00:30.909Z,12.45
2017-04-14T10:01:28.286Z,12.30
2017-04-14T10:02:26.350Z,11.45
2017-04-14T10:03:24.391Z,11.45
2017-04-14T10:04:21.807Z,12.03
2017-04-14T10:05:19.163Z,12.30
2017-04-14T10:06:16.477Z,10.77
2017-04-14T10:07:13.794Z,12.60
2017-04-14T10:08:11.871Z,12.33
2017-04-14T10:09:09.205Z,12.00
2017-04-14T10:10:06.599Z,13.05
2017-04-14T10:11:03.942Z,12.43
2017-04-14T10:12:01.245Z,11.68
2017-04-14T10:12:58.563Z,12.37
2017-04-14T10:13:56.041Z,11.92
2017-04-14T10:14:54.289Z,12.37
2017-04-14T10:15:53.318Z,13.78
2017-04-14T10:16:50.630Z,12.12
2017-04-14T10:17:48.681Z,13.32
2017-04-14T10:18:46.042Z,13.30
2017-04-14T10:19:43.397Z,13.30
2017-04-14T10:20:41.467Z,12.60
2017-04-14T10:21:38.889Z,12.48
2017-04-14T10:22:36.986Z,12.68
2017-04-14T10:23:34.322Z,12.67
2017-04-14T10:24:33.212Z,10.97
2017-04-14T10:25:30.537Z,11.57
2017-04-14T10:26:27.886Z,10.75
2017-04-14T10:27:25.326Z,9.97
2017-04-14T10:28:23.401Z,11.07
2017-04-14T10:29:20.706Z,10.18
2017-04-14T10:30:18.182Z,9.75
2017-04-14T10:31:15.669Z,10.65
2017-04-14T10:32:12.982Z,11.45
2017-04-14T10:33:10.366Z,11.43
2017-04-14T10:34:08.430Z,10.40
2017-04-14T10:35:05.759Z,10.72
2017-04-14T10:36:03.083Z,10.35
2017-04-14T10:37:00.433Z,10.18
2017-04-14T10:37:58.382Z,10.95
2017-04-14T10:38:56.535Z,10.33
2017-04-14T10:39:53.859Z,10.03
2017-04-14T10:40:51.194Z,9.47
2017-04-14T10:41:48.546Z,9.93
2017-04-14T10:42:45.934Z,9.05
2017-04-14T10:43:44.182Z,8.93
2017-04-14T10:44:41.609Z,9.75
2017-04-14T10:45:38.930Z,10.07
2017-04-14T10:46:37.021Z,10.38
2017-04-14T10:47:34.323Z,9.95
2017-04-14T10:48:32.396Z,10.37
2017-04-14T10:49:30.494Z,9.47
2017-04-14T10:50:27.873Z,10.20
2017-04-14T10:51:25.199Z,10.57
2017-04-14T10:52:23.295Z,9.08
2017-04-14T10:53:21.353Z,9.40
2017-04-14T10:54:19.474Z,10.27
2017-04-14T10:55:16.878Z,10.57
2017-04-14T10:56:14.287Z,10.48
2017-04-14T10:57:11.635Z,10.45
2017-04-14T10:58:08.958Z,10.50
2017-04-14T10:59:06.285Z,11.90
2017-04-14T11:00:03.663Z,9.80
2017-04-14T11:01:01.366Z,11.07
2017-04-14T11:01:59.428Z,8.77
2017-04-14T11:02:57.654Z,9.33
2017-04-14T11:03:54.967Z,10.55
2017-04-14T11:04:52.298Z,9.48
2017-04-14T11:05:49.653Z,9.20
2017-04-14T11:06:46.998Z,10.28
2017-04-14T11:07:44.462Z,9.00
2017-04-14T11:08:41.786Z,8.65
2017-04-14T11:09:39.180Z,8.48
2017-04-14T11:10:36.542Z,9.22
2017-04-14T11:11:33.862Z,8.75
2017-04-14T11:12:31.222Z,10.10
2017-04-14T11:13:29.396Z,8.95
2017-04-14T11:14:28.398Z,10.37
2017-04-14T11:15:26.491Z,9.17
2017-04-14T11:16:23.802Z,10.60
2017-04-14T11:17:21.115Z,10.22
2017-04-14T11:18:18.516Z,9.88
2017-04-14T11:19:16.677Z,9.58
2017-04-14T11:20:14.017Z,10.58
2017-04-14T11:21:11.965Z,10.33
2017-04-14T11:22:09.949Z,9.93
2017-04-14T11:23:07.998Z,10.12
2017-04-14T11:24:05.319Z,9.42
2017-04-14T11:25:04.110Z,9.15
2017-04-14T11:26:01.431Z,9.97
2017-04-14T11:26:59.543Z,9.63
2017-04-14T11:27:56.922Z,8.55
2017-04-14T11:28:54.230Z,9.22
2017-04-14T11:29:53.256Z,10.20
2017-04-14T11:30:51.527Z,9.10
2017-04-14T11:31:49.566Z,9.72
2017-04-14T11:32:46.886Z,10.08
2017-04-14T11:33:44.209Z,9.38
2017-04-14T11:34:42.283Z,10.47
2017-04-14T11:35:39.617Z,9.15
2017-04-14T11:36:36.990Z,10.60
2017-04-14T11:37:34.308Z,9.67
2017-04-14T11:38:32.700Z,9.38
2017-04-14T11:39:30.081Z,11.27
2017-04-14T11:40:27.427Z,9.65
2017-04-14T11:41:25.506Z,10.98
2017-04-14T11:42:24.275Z,9.80
2017-04-14T11:43:23.970Z,10.67
2017-04-14T11:44:22.946Z,10.98
2017-04-14T11:45:21.957Z,9.63
2017-04-14T11:46:21.179Z,11.92
2017-04-14T11:47:22.438Z,10.77
2017-04-14T11:48:22.430Z,11.38
2017-04-14T11:49:22.162Z,9.37
2017-04-14T11:50:22.147Z,11.73
2017-04-14T11:51:19.519Z,10.10
2017-04-14T11:52:16.835Z,11.25
2017-04-14T11:53:15.970Z,11.67
2017-04-14T11:54:13.674Z,11.12
2017-04-14T11:55:12.497Z,11.18
2017-04-14T11:56:10.137Z,11.70
2017-04-14T11:57:07.859Z,11.42
2017-04-14T11:58:05.202Z,11.43
2017-04-14T11:59:03.517Z,9.40
2017-04-14T12:00:02.077Z,11.37
2017-04-14T12:00:59.710Z,9.13
2017-04-14T12:01:57.549Z,7.75
2017-04-14T12:02:55.235Z,7.18
2017-04-14T12:03:53.511Z,8.73
2017-04-14T12:04:51.266Z,7.70
2017-04-14T12:05:48.959Z,7.63
2017-04-14T12:06:46.798Z,7.48
2017-04-14T12:07:44.943Z,6.87
2017-04-14T12:08:42.682Z,7.38
2017-04-14T12:09:40.350Z,7.98
2017-04-14T12:10:38.267Z,7.63
2017-04-14T12:11:36.171Z,6.98
2017-04-14T12:12:33.827Z,7.75
2017-04-14T12:13:31.550Z,8.08
2017-04-14T12:14:30.295Z,8.43
2017-04-14T12:15:27.913Z,7.67
2017-04-14T12:16:25.459Z,7.50
2017-04-14T12:17:23.413Z,8.78
2017-04-14T12:18:21.976Z,7.47
2017-04-14T12:19:19.503Z,7.67
2017-04-14T12:20:17.891Z,8.95
2017-04-14T12:21:15.259Z,8.45
2017-04-14T12:22:13.932Z,9.30
2017-04-14T12:23:14.225Z,7.57
2017-04-14T12:24:12.084Z,8.63
2017-04-14T12:25:10.637Z,8.45
2017-04-14T12:26:08.146Z,8.20
2017-04-14T12:27:05.796Z,8.37
2017-04-14T12:28:03.541Z,8.62